Latest Weather Observations for Evans Head

IDN60801

Issued at 4:03 pm EDT Friday 20 October 2017 (issued every 30 minutes, with the page automatically refreshed every 10 minutes)

About weather observations | Map of weather stations | Latest weather observations for NSW | Other Formats
Station Details ID: 058212 Name: EVANS HEAD RAAF BOMBING RANGE AWS Lat: -29.18 Lon: 153.40 Height: 62.5 m
Data from the previous 72 hours. | See also: Recent months at Evans Head
Date/Time
EDT
Temp
°C
App
Temp
°C
Dew
Point
°C
Rel
Hum
%
Delta-T
°C
Wind Press
QNH
hPa
Press
MSL
hPa
Rain since
9am
mm
Dir  Spd
km/h
Gust
km/h
Spd
kts
Gust
kts
20/04:00pm 25.6 23.1 17.0 59 5.3 NNE 26 43 14 23 1015.7 1015.5 0.0
20/03:30pm 24.9 21.3 16.3 59 5.3 NNE 30 43 16 23 1016.2 1016.0 0.0
20/03:00pm 25.8 23.6 16.9 58 5.5 NNE 24 39 13 21 1016.8 1016.6 0.0
20/02:30pm 25.8 24.0 16.9 58 5.5 NNE 22 35 12 19 1017.5 1017.3 0.0
20/02:00pm 25.1 22.3 16.3 58 5.4 NE 26 35 14 19 1018.1 1017.9 0.0
20/01:30pm 27.0 25.4 16.6 53 6.5 NNE 20 33 11 18 1018.6 1018.4 0.0
20/01:00pm 25.3 23.8 15.3 54 6.0 NE 17 30 9 16 1018.9 1018.7 0.0
20/12:30pm 29.3 27.3 13.9 39 9.3 N 17 30 9 16 1019.3 1019.1 0.0
20/12:00pm 27.4 25.2 13.4 42 8.3 N 17 28 9 15 1019.9 1019.7 0.0
20/11:30am 28.0 26.1 14.3 43 8.2 NNW 17 26 9 14 1020.4 1020.2 0.0
20/11:00am 27.7 26.6 15.4 47 7.5 NNW 15 24 8 13 1020.7 1020.5 0.0
20/10:30am 26.0 25.3 15.4 52 6.4 N 13 24 7 13 1021.0 1020.8 0.0
20/10:00am 25.5 24.6 15.8 55 5.9 N 15 26 8 14 1021.3 1021.1 0.0
20/09:30am 24.7 24.2 15.9 58 5.4 N 13 20 7 11 1021.6 1021.4 0.0
20/09:00am 23.0 21.9 15.3 62 4.6 NNW 15 24 8 13 1021.5 1021.3 0.0
20/08:30am 21.9 21.5 16.2 70 3.5 NNW 13 19 7 10 1021.4 1021.2 0.0
20/08:00am 19.9 20.3 16.2 79 2.2 NNW 9 15 5 8 1021.6 1021.4 0.0
20/07:30am 17.7 18.4 15.5 87 1.3 NNW 6 7 3 4 1021.7 1021.5 0.0
20/07:00am 16.1 16.3 14.8 92 0.7 NNW 7 9 4 5 1021.6 1021.4 0.0
20/06:30am 15.4 15.1 14.3 93 0.6 NNW 9 13 5 7 1021.4 1021.2 0.0
20/06:00am 15.2 14.7 13.9 92 0.7 NNW 9 13 5 7 1021.1 1020.9 0.0
20/05:30am 15.4 14.6 13.9 91 0.8 NNW 11 13 6 7 1021.0 1020.8 0.0
20/05:00am 15.7 15.3 14.1 90 0.9 NNW 9 11 5 6 1020.8 1020.6 0.0
20/04:30am 16.0 16.1 14.4 90 0.9 NNW 7 9 4 5 1021.1 1020.9 0.0
20/04:00am 16.2 16.0 14.6 90 0.9 NNW 9 11 5 6 1021.3 1021.1 0.0
20/03:30am 16.1 15.8 14.3 89 1.0 NNW 9 13 5 7 1021.7 1021.5 0.0
20/03:00am 16.4 16.2 14.6 89 1.0 NNW 9 11 5 6 1022.0 1021.8 0.0
20/02:30am 16.6 16.2 14.2 86 1.4 N 9 11 5 6 1022.3 1022.1 0.0
20/02:00am 16.9 16.6 14.5 86 1.4 NNW 9 13 5 7 1022.6 1022.4 0.0
20/01:30am 17.2 16.2 14.5 84 1.6 N 13 15 7 8 1022.9 1022.7 0.0
20/01:00am 17.5 16.7 15.0 85 1.4 N 13 19 7 10 1023.3 1023.1 0.0
20/12:30am 17.4 16.5 14.9 85 1.5 N 13 15 7 8 1023.7 1023.5 0.0
20/12:00am 17.5 17.0 15.0 85 1.4 N 11 15 6 8 1024.0 1023.8 0.0
 
Date/Time
EDT
Temp
°C
App
Temp
°C
Dew
Point
°C
Rel
Hum
%
Delta-T
°C
Wind Press
QNH
hPa
Press
MSL
hPa
Rain since
9am
mm
Dir  Spd
km/h
Gust
km/h
Spd
kts
Gust
kts
19/11:30pm 17.9 17.1 15.2 84 1.6 N 13 17 7 9 1024.2 1024.0 0.0
19/11:00pm 18.3 17.8 15.0 81 1.9 N 11 15 6 8 1024.4 1024.2 0.0
19/10:30pm 18.8 17.5 14.9 78 2.3 NNE 15 22 8 12 1024.5 1024.3 0.0
19/10:00pm 18.9 17.4 15.2 79 2.2 N 17 22 9 12 1024.6 1024.4 0.0
19/09:30pm 18.9 17.8 15.2 79 2.2 NNE 15 22 8 12 1024.6 1024.4 0.0
19/09:00pm 18.9 17.6 14.8 77 2.4 NNE 15 20 8 11 1024.6 1024.4 0.0
19/08:30pm 18.7 17.2 14.2 75 2.6 N 15 19 8 10 1024.5 1024.3 0.0
19/08:00pm 18.9 17.8 14.2 74 2.7 NNE 13 19 7 10 1024.4 1024.2 0.0
19/07:30pm 19.2 18.1 14.2 73 2.9 NNE 13 17 7 9 1024.3 1024.1 0.0
19/07:00pm 19.7 18.9 13.9 69 3.3 NNE 11 17 6 9 1024.1 1023.9 0.0
19/06:30pm 20.7 19.4 13.6 64 4.1 NE 13 22 7 12 1024.0 1023.8 0.0
19/06:00pm 21.3 18.9 13.7 62 4.4 ENE 19 26 10 14 1023.9 1023.7 0.0
19/05:30pm 21.9 19.7 13.3 58 5.0 NE 17 28 9 15 1023.7 1023.5 0.0
19/05:00pm 22.3 19.7 13.9 59 4.9 ENE 20 30 11 16 1023.7 1023.5 0.0
19/04:30pm 22.5 19.9 13.8 58 5.1 ENE 20 32 11 17 1023.7 1023.5 0.0
19/04:00pm 22.6 20.3 14.7 61 4.7 ENE 20 32 11 17 1023.9 1023.7 0.0
19/03:30pm 22.7 19.7 13.7 56 5.2 ENE 22 33 12 18 1024.2 1024.0 0.0
19/03:00pm 22.9 20.0 13.9 57 5.2 ENE 22 33 12 18 1024.5 1024.3 0.0
19/02:30pm 23.9 20.7 14.3 55 5.7 E 24 33 13 18 1024.9 1024.7 0.0
19/02:00pm 24.6 22.4 15.0 55 5.7 ENE 20 32 11 17 1025.2 1025.0 0.0
19/01:30pm 23.4 20.0 13.6 54 5.7 ENE 24 32 13 17 1025.5 1025.3 0.0
19/01:00pm 23.6 20.4 14.3 56 5.5 ENE 24 32 13 17 1025.8 1025.6 0.0
19/12:30pm 24.6 22.8 15.5 57 5.5 ENE 19 28 10 15 1026.0 1025.8 0.0
19/12:00pm 23.2 20.1 14.5 58 5.1 ENE 24 32 13 17 1026.4 1026.2 0.0
19/11:30am 24.3 22.1 16.0 60 5.1 ENE 22 32 12 17 1026.5 1026.3 0.0
19/11:00am 23.4 21.1 14.7 58 5.1 ENE 20 35 11 19 1026.7 1026.5 0.0
19/10:30am 23.7 21.3 14.4 56 5.5 ENE 20 32 11 17 1026.9 1026.7 0.0
19/10:00am 23.2 20.5 14.5 58 5.1 ENE 22 30 12 16 1027.1 1026.9 0.0
19/09:30am 23.1 21.0 14.7 59 5.0 ENE 19 28 10 15 1027.2 1027.1 0.0
19/09:00am 22.9 20.9 15.0 61 4.7 ENE 19 28 10 15 1027.1 1026.9 0.8
19/08:30am 22.1 20.0 13.7 59 4.9 ENE 17 30 9 16 1026.8 1026.6 -
19/08:00am 21.8 21.5 14.4 63 4.3 NNE 9 17 5 9 1026.7 1026.5 -
19/07:30am 21.3 20.4 13.7 62 4.4 NE 11 19 6 10 1026.7 1026.5 -
19/07:00am 20.9 18.9 13.8 64 4.1 ENE 17 24 9 13 1026.6 1026.4 -
19/06:30am 19.1 18.1 13.5 70 3.2 NE 11 19 6 10 1026.2 1026.0 -
19/06:00am 18.7 17.8 13.6 72 2.9 NE 11 17 6 9 1026.0 1025.8 -
19/05:30am 18.9 18.0 13.7 72 3.0 NE 11 15 6 8 1025.9 1025.7 -
19/05:00am 19.0 18.5 13.8 72 3.0 NNE 9 15 5 8 1025.8 1025.6 -
19/04:30am 18.9 18.0 13.7 72 3.0 NE 11 17 6 9 1025.7 1025.5 -
19/04:00am 19.1 17.8 13.7 71 3.1 NE 13 19 7 10 1025.6 1025.4 -
19/03:30am 18.9 18.5 14.2 74 2.7 NE 9 15 5 8 1025.9 1025.7 -
19/03:00am 18.7 18.3 14.2 75 2.6 NNE 9 15 5 8 1025.9 1025.7 0.0
19/02:30am 18.7 18.1 14.6 77 2.4 NNE 11 17 6 9 1026.3 1026.1 -
19/02:00am 19.0 18.4 14.5 75 2.6 NE 11 17 6 9 1026.5 1026.3 -
19/01:30am 19.6 18.1 14.2 71 3.1 NE 15 22 8 12 1027.0 1026.8 -
19/01:00am 19.8 18.7 15.2 75 2.7 ENE 15 22 8 12 1027.3 1027.2 -
19/12:30am 19.7 17.9 14.5 72 3.0 ENE 17 24 9 13 1027.5 1027.4 -
19/12:00am 19.9 18.6 14.9 73 2.9 ENE 15 20 8 11 1027.8 1027.7 -
 
Date/Time
EDT
Temp
°C
App
Temp
°C
Dew
Point
°C
Rel
Hum
%
Delta-T
°C
Wind Press
QNH
hPa
Press
MSL
hPa
Rain since
9am
mm
Dir  Spd
km/h
Gust
km/h
Spd
kts
Gust
kts
18/11:30pm 20.1 17.9 14.9 72 3.1 ENE 20 26 11 14 1027.9 1027.8 -
18/11:00pm 20.1 18.1 14.9 72 3.0 E 19 26 10 14 1027.9 1027.8 -
18/10:30pm 20.1 18.2 15.3 74 2.8 ENE 19 30 10 16 1027.7 1027.6 -
18/10:00pm 20.1 17.6 15.1 73 2.9 E 22 33 12 18 1027.7 1027.6 -
18/09:30pm 20.0 17.8 15.0 73 2.9 ENE 20 28 11 15 1027.6 1027.5 -
18/09:00pm 20.0 17.9 14.8 72 3.0 E 19 28 10 15 1027.4 1027.3 0.4
18/08:30pm 20.1 17.9 14.9 72 3.1 E 20 30 11 16 1027.2 1027.1 -
18/08:00pm 19.9 17.4 15.1 74 2.8 E 22 32 12 17 1026.7 1026.5 -
18/07:30pm 19.9 17.5 15.5 76 2.6 ESE 22 30 12 16 1026.5 1026.3 -
18/07:00pm 19.9 17.4 15.1 74 2.8 E 22 32 12 17 1026.2 1026.0 -
18/06:30pm 19.9 18.4 15.3 75 2.7 E 17 24 9 13 1026.1 1025.9 -
18/06:00pm 20.1 17.1 14.9 72 3.0 E 24 33 13 18 1025.9 1025.7 -
18/05:30pm 19.9 18.7 16.2 79 2.2 SE 17 24 9 13 1025.8 1025.6 -
18/05:00pm 20.2 17.2 15.8 76 2.6 ESE 26 32 14 17 1025.7 1025.5 -
18/04:30pm 20.2 17.7 15.2 73 3.0 ESE 22 32 12 17 1025.5 1025.3 -
18/04:00pm 19.3 19.2 16.9 86 1.4 ESE 13 17 7 9 1025.7 1025.5 -
18/03:30pm 19.9 16.6 14.9 73 2.9 SE 26 33 14 18 1026.0 1025.8 -
18/03:00pm 20.3 16.9 15.7 75 2.7 ESE 28 37 15 20 1026.3 1026.1 0.4
18/02:30pm 21.3 17.7 15.2 68 3.6 ESE 28 35 15 19 1026.4 1026.2 -
18/02:00pm 21.7 17.6 16.0 70 3.4 ESE 32 41 17 22 1026.5 1026.3 -
18/01:30pm 21.2 17.8 15.7 71 3.3 ESE 28 35 15 19 1026.9 1026.7 -
18/01:00pm 19.7 16.1 16.3 81 2.0 ESE 30 41 16 22 1027.1 1026.9 -
18/12:50pm 19.8 18.0 16.1 79 2.2 E 20 39 11 21 1027.2 1027.1 -
18/12:30pm 18.3 18.2 15.9 86 1.4 E 11 20 6 11 1027.3 1027.2 -
18/12:00pm 19.7 16.4 14.9 74 2.8 E 26 39 14 21 1027.5 1027.4 -
18/11:30am 20.5 17.1 15.9 75 2.8 ESE 28 39 15 21 1027.6 1027.5 -
18/11:00am 19.9 17.0 16.0 78 2.3 E 26 39 14 21 1027.7 1027.6 -
18/10:00am 20.5 16.8 16.1 76 2.6 E 30 43 16 23 1027.5 1027.4 -
18/09:30am 20.7 16.8 15.5 72 3.1 ESE 30 46 16 25 1027.2 1027.1 -
18/09:00am 20.4 16.1 15.4 73 3.0 ESE 32 43 17 23 1026.8 1026.6 0.6
18/08:30am 20.3 17.6 15.7 75 2.7 ESE 24 35 13 19 1026.6 1026.4 -
18/08:00am 19.3 16.7 15.8 80 2.1 ESE 24 35 13 19 1026.4 1026.2 -
18/07:30am 18.4 16.7 17.1 92 0.8 ESE 22 35 12 19 1026.2 1026.0 -
18/07:00am 17.6 15.5 16.3 92 0.8 SE 22 30 12 16 1026.1 1025.9 0.4
18/06:30am 18.2 14.0 16.2 88 1.2 ESE 33 48 18 26 1025.5 1025.3 0.0
18/06:22am 19.0 15.7 16.0 83 1.8 ESE 28 48 15 26 1025.3 1025.1 0.0
18/06:00am 19.2 15.6 15.3 78 2.3 ESE 28 43 15 23 1025.0 1024.8 0.0
18/05:30am 18.7 16.3 16.5 87 1.3 SE 24 43 13 23 1024.6 1024.4 0.0
18/05:00am 18.7 15.6 16.5 87 1.3 SE 28 41 15 22 1024.4 1024.2 0.0
18/04:30am 19.1 16.5 16.0 82 1.8 ESE 24 37 13 20 1024.4 1024.2 0.0
18/04:00am 19.2 17.7 16.4 84 1.7 ESE 19 33 10 18 1024.5 1024.3 0.0
18/03:30am 19.2 15.5 16.1 82 1.9 ESE 30 43 16 23 1024.4 1024.2 0.0
18/03:00am 19.0 16.1 16.0 83 1.8 ESE 26 39 14 21 1024.5 1024.3 0.0
18/02:30am 19.6 17.1 16.1 80 2.1 ESE 24 32 13 17 1024.6 1024.4 0.0
18/02:00am 19.4 17.8 16.4 83 1.8 SE 20 30 11 16 1025.0 1024.8 0.0
18/01:30am 18.4 15.8 16.0 86 1.4 SE 24 35 13 19 1025.5 1025.3 0.0
18/01:00am 19.7 16.5 15.4 76 2.5 ESE 26 32 14 17 1025.6 1025.4 0.0
18/12:30am 19.6 16.6 14.8 74 2.8 ESE 24 32 13 17 1026.0 1025.8 0.0
18/12:00am 19.7 16.5 14.3 71 3.1 ESE 24 32 13 17 1026.1 1025.9 0.0
 
Date/Time
EDT
Temp
°C
App
Temp
°C
Dew
Point
°C
Rel
Hum
%
Delta-T
°C
Wind Press
QNH
hPa
Press
MSL
hPa
Rain since
9am
mm
Dir  Spd
km/h
Gust
km/h
Spd
kts
Gust
kts
17/11:30pm 19.7 16.8 14.1 70 3.2 ESE 22 32 12 17 1026.1 1025.9 0.0
17/11:00pm 20.0 16.3 13.9 68 3.5 ESE 26 33 14 18 1025.8 1025.6 0.0
17/10:30pm 20.0 15.5 13.9 68 3.5 ESE 30 41 16 22 1025.8 1025.6 0.0
17/10:00pm 20.0 16.2 14.8 72 3.0 ESE 28 33 15 18 1025.9 1025.7 0.0
17/09:30pm 20.0 15.8 14.6 71 3.2 ESE 30 39 16 21 1025.8 1025.6 0.0
17/09:00pm 20.1 16.4 14.9 72 3.0 ESE 28 35 15 19 1025.6 1025.4 0.0
17/08:30pm 20.1 16.4 15.1 73 2.9 ESE 28 37 15 20 1025.3 1025.1 0.0
17/08:00pm 20.1 16.5 15.3 74 2.8 ESE 28 37 15 20 1025.0 1024.8 0.0
17/07:30pm 20.1 16.6 15.5 75 2.7 ESE 28 39 15 21 1024.8 1024.6 0.0
17/07:00pm 20.0 16.8 15.4 75 2.7 ESE 26 37 14 20 1024.6 1024.4 0.0
17/06:30pm 20.1 17.6 15.1 73 2.9 ESE 22 35 12 19 1024.5 1024.3 0.0
17/06:00pm 20.1 16.7 14.7 71 3.2 ESE 26 37 14 20 1024.0 1023.8 0.0
17/05:30pm 20.1 16.9 15.3 74 2.8 ESE 26 37 14 20 1024.0 1023.8 0.0
17/05:00pm 20.2 17.0 15.2 73 2.9 ESE 26 39 14 21 1023.7 1023.5 0.0
17/04:30pm 20.3 17.0 15.1 72 3.1 ESE 26 35 14 19 1023.6 1023.4 0.0

Other Formats:

Comma delimited format used in spreadsheet applications
http://www.bom.gov.au/fwo/IDN60801/IDN60801.94598.axf

JavaScript Object Notation format (JSON) in row-major order
http://www.bom.gov.au/fwo/IDN60801/IDN60801.94598.json